sensor_id;sensor_type;location;lat;lon;timestamp;temperature;humidity
16829;DHT22;8531;48.078;11.968;2023-03-23T00:01:08;11.00;99.90
16829;DHT22;8531;48.078;11.968;2023-03-23T00:03:38;10.90;99.90
16829;DHT22;8531;48.078;11.968;2023-03-23T00:06:05;10.80;99.90
16829;DHT22;8531;48.078;11.968;2023-03-23T00:08:37;10.80;99.90
16829;DHT22;8531;48.078;11.968;2023-03-23T00:11:06;10.80;99.90
16829;DHT22;8531;48.078;11.968;2023-03-23T00:13:33;10.80;99.90
16829;DHT22;8531;48.078;11.968;2023-03-23T00:15:59;10.80;99.90
16829;DHT22;8531;48.078;11.968;2023-03-23T00:18:25;10.90;99.90
16829;DHT22;8531;48.078;11.968;2023-03-23T00:20:55;10.80;99.90
16829;DHT22;8531;48.078;11.968;2023-03-23T00:23:23;10.80;99.90
16829;DHT22;8531;48.078;11.968;2023-03-23T00:25:52;10.70;99.90
16829;DHT22;8531;48.078;11.968;2023-03-23T00:28:19;10.70;99.90
16829;DHT22;8531;48.078;11.968;2023-03-23T00:30:57;10.70;99.90
16829;DHT22;8531;48.078;11.968;2023-03-23T00:33:33;10.60;99.90
16829;DHT22;8531;48.078;11.968;2023-03-23T00:36:03;10.60;99.90
16829;DHT22;8531;48.078;11.968;2023-03-23T00:38:29;10.60;99.90
16829;DHT22;8531;48.078;11.968;2023-03-23T00:40:55;10.60;99.90
16829;DHT22;8531;48.078;11.968;2023-03-23T00:43:23;10.60;99.90
16829;DHT22;8531;48.078;11.968;2023-03-23T00:45:50;10.60;99.90
16829;DHT22;8531;48.078;11.968;2023-03-23T00:48:21;10.60;99.90
16829;DHT22;8531;48.078;11.968;2023-03-23T00:50:47;10.50;99.90
16829;DHT22;8531;48.078;11.968;2023-03-23T00:53:14;10.40;99.90
16829;DHT22;8531;48.078;11.968;2023-03-23T00:55:42;10.40;99.90
16829;DHT22;8531;48.078;11.968;2023-03-23T00:58:08;10.40;99.90
16829;DHT22;8531;48.078;11.968;2023-03-23T01:00:35;10.30;99.90
16829;DHT22;8531;48.078;11.968;2023-03-23T01:03:00;10.30;99.90
16829;DHT22;8531;48.078;11.968;2023-03-23T01:05:26;10.30;99.90
16829;DHT22;8531;48.078;11.968;2023-03-23T01:07:58;10.30;99.90
16829;DHT22;8531;48.078;11.968;2023-03-23T01:10:24;10.30;99.90
16829;DHT22;8531;48.078;11.968;2023-03-23T01:12:52;10.30;99.90
16829;DHT22;8531;48.078;11.968;2023-03-23T01:15:19;10.30;99.90
16829;DHT22;8531;48.078;11.968;2023-03-23T01:17:45;10.30;99.90
16829;DHT22;8531;48.078;11.968;2023-03-23T01:20:15;10.30;99.90
16829;DHT22;8531;48.078;11.968;2023-03-23T01:22:41;10.30;99.90
16829;DHT22;8531;48.078;11.968;2023-03-23T01:25:09;10.20;99.90
16829;DHT22;8531;48.078;11.968;2023-03-23T01:27:36;10.20;99.90
16829;DHT22;8531;48.078;11.968;2023-03-23T01:30:02;10.10;99.90
16829;DHT22;8531;48.078;11.968;2023-03-23T01:32:28;10.20;99.90
16829;DHT22;8531;48.078;11.968;2023-03-23T01:34:54;10.20;99.90
16829;DHT22;8531;48.078;11.968;2023-03-23T01:37:20;10.20;99.90
16829;DHT22;8531;48.078;11.968;2023-03-23T01:39:54;10.20;99.90
16829;DHT22;8531;48.078;11.968;2023-03-23T01:42:30;10.20;99.90
16829;DHT22;8531;48.078;11.968;2023-03-23T01:47:43;10.10;99.90
16829;DHT22;8531;48.078;11.968;2023-03-23T01:50:09;10.20;99.90
16829;DHT22;8531;48.078;11.968;2023-03-23T01:52:35;10.20;99.90
16829;DHT22;8531;48.078;11.968;2023-03-23T01:55:02;10.10;99.90
16829;DHT22;8531;48.078;11.968;2023-03-23T01:57:29;10.20;99.90
16829;DHT22;8531;48.078;11.968;2023-03-23T01:59:57;10.20;99.90
16829;DHT22;8531;48.078;11.968;2023-03-23T02:02:26;10.20;99.90
16829;DHT22;8531;48.078;11.968;2023-03-23T02:04:55;10.20;99.90
16829;DHT22;8531;48.078;11.968;2023-03-23T02:07:24;10.20;99.90
16829;DHT22;8531;48.078;11.968;2023-03-23T02:09:51;10.10;99.90
16829;DHT22;8531;48.078;11.968;2023-03-23T02:12:17;10.20;99.90
16829;DHT22;8531;48.078;11.968;2023-03-23T02:14:43;10.20;99.90
16829;DHT22;8531;48.078;11.968;2023-03-23T02:17:20;10.10;99.90
16829;DHT22;8531;48.078;11.968;2023-03-23T02:23:13;10.20;99.90
16829;DHT22;8531;48.078;11.968;2023-03-23T02:34:42;9.90;99.90
16829;DHT22;8531;48.078;11.968;2023-03-23T02:37:21;10.00;99.90
16829;DHT22;8531;48.078;11.968;2023-03-23T02:39:52;10.10;99.90
16829;DHT22;8531;48.078;11.968;2023-03-23T02:42:24;10.10;99.90
16829;DHT22;8531;48.078;11.968;2023-03-23T02:44:52;9.90;99.90
16829;DHT22;8531;48.078;11.968;2023-03-23T02:47:25;10.00;99.90
16829;DHT22;8531;48.078;11.968;2023-03-23T02:49:54;9.90;99.90
16829;DHT22;8531;48.078;11.968;2023-03-23T02:52:24;10.00;99.90
16829;DHT22;8531;48.078;11.968;2023-03-23T02:54:51;10.00;99.90
16829;DHT22;8531;48.078;11.968;2023-03-23T02:57:19;10.00;99.90
16829;DHT22;8531;48.078;11.968;2023-03-23T02:59:46;10.00;99.90
16829;DHT22;8531;48.078;11.968;2023-03-23T03:02:18;10.00;99.90
16829;DHT22;8531;48.078;11.968;2023-03-23T03:10:51;10.00;99.90
16829;DHT22;8531;48.078;11.968;2023-03-23T03:13:33;10.00;99.90
16829;DHT22;8531;48.078;11.968;2023-03-23T03:18:46;10.00;99.90
16829;DHT22;8531;48.078;11.968;2023-03-23T03:21:14;10.00;99.90
16829;DHT22;8531;48.078;11.968;2023-03-23T03:23:43;10.00;99.90
16829;DHT22;8531;48.078;11.968;2023-03-23T03:26:13;10.00;99.90
16829;DHT22;8531;48.078;11.968;2023-03-23T03:28:44;10.00;99.90
16829;DHT22;8531;48.078;11.968;2023-03-23T03:31:13;9.90;99.90
16829;DHT22;8531;48.078;11.968;2023-03-23T03:33:40;10.00;99.90
16829;DHT22;8531;48.078;11.968;2023-03-23T03:36:06;10.00;99.90
16829;DHT22;8531;48.078;11.968;2023-03-23T03:38:45;10.00;99.90
16829;DHT22;8531;48.078;11.968;2023-03-23T03:41:12;9.90;99.90
16829;DHT22;8531;48.078;11.968;2023-03-23T03:43:38;9.80;99.90
16829;DHT22;8531;48.078;11.968;2023-03-23T03:46:03;9.70;99.90
16829;DHT22;8531;48.078;11.968;2023-03-23T03:48:29;9.80;99.90
16829;DHT22;8531;48.078;11.968;2023-03-23T03:50:55;9.80;99.90
16829;DHT22;8531;48.078;11.968;2023-03-23T03:53:23;9.80;99.90
16829;DHT22;8531;48.078;11.968;2023-03-23T03:55:49;9.80;99.90
16829;DHT22;8531;48.078;11.968;2023-03-23T03:58:15;9.70;99.90
16829;DHT22;8531;48.078;11.968;2023-03-23T04:00:42;9.80;99.90
16829;DHT22;8531;48.078;11.968;2023-03-23T04:03:08;9.60;99.90
16829;DHT22;8531;48.078;11.968;2023-03-23T04:05:34;9.70;99.90
16829;DHT22;8531;48.078;11.968;2023-03-23T04:08:02;9.70;99.90
16829;DHT22;8531;48.078;11.968;2023-03-23T04:10:30;9.60;99.90
16829;DHT22;8531;48.078;11.968;2023-03-23T04:12:57;9.60;99.90
16829;DHT22;8531;48.078;11.968;2023-03-23T04:15:23;9.60;99.90
16829;DHT22;8531;48.078;11.968;2023-03-23T04:17:49;9.70;99.90
16829;DHT22;8531;48.078;11.968;2023-03-23T04:20:16;9.50;99.90
16829;DHT22;8531;48.078;11.968;2023-03-23T04:22:46;9.50;99.90
16829;DHT22;8531;48.078;11.968;2023-03-23T04:25:15;9.40;99.90
16829;DHT22;8531;48.078;11.968;2023-03-23T04:27:43;9.40;99.90
16829;DHT22;8531;48.078;11.968;2023-03-23T04:30:10;9.40;99.90
16829;DHT22;8531;48.078;11.968;2023-03-23T04:32:37;9.40;99.90
16829;DHT22;8531;48.078;11.968;2023-03-23T04:35:11;9.40;99.90
16829;DHT22;8531;48.078;11.968;2023-03-23T04:37:38;9.40;99.90
16829;DHT22;8531;48.078;11.968;2023-03-23T04:40:05;9.40;99.90
16829;DHT22;8531;48.078;11.968;2023-03-23T04:42:43;9.30;99.90
16829;DHT22;8531;48.078;11.968;2023-03-23T04:45:13;9.30;99.90
16829;DHT22;8531;48.078;11.968;2023-03-23T04:47:40;9.20;99.90
16829;DHT22;8531;48.078;11.968;2023-03-23T04:50:11;9.20;99.90
16829;DHT22;8531;48.078;11.968;2023-03-23T04:52:39;9.30;99.90
16829;DHT22;8531;48.078;11.968;2023-03-23T04:55:10;9.40;99.90
16829;DHT22;8531;48.078;11.968;2023-03-23T04:57:36;9.30;99.90
16829;DHT22;8531;48.078;11.968;2023-03-23T05:00:02;9.30;99.90
16829;DHT22;8531;48.078;11.968;2023-03-23T05:02:36;9.30;99.90
16829;DHT22;8531;48.078;11.968;2023-03-23T05:05:01;9.30;99.90
16829;DHT22;8531;48.078;11.968;2023-03-23T05:07:27;9.30;99.90
16829;DHT22;8531;48.078;11.968;2023-03-23T05:09:53;9.30;99.90
16829;DHT22;8531;48.078;11.968;2023-03-23T05:12:18;9.30;99.90
16829;DHT22;8531;48.078;11.968;2023-03-23T05:14:44;9.30;99.90
16829;DHT22;8531;48.078;11.968;2023-03-23T05:17:10;9.30;99.90
16829;DHT22;8531;48.078;11.968;2023-03-23T05:19:38;9.30;99.90
16829;DHT22;8531;48.078;11.968;2023-03-23T05:22:03;9.30;99.90
16829;DHT22;8531;48.078;11.968;2023-03-23T05:24:30;9.30;99.90
16829;DHT22;8531;48.078;11.968;2023-03-23T05:26:59;9.30;99.90
16829;DHT22;8531;48.078;11.968;2023-03-23T05:29:25;9.30;99.90
16829;DHT22;8531;48.078;11.968;2023-03-23T05:31:52;9.40;99.90
16829;DHT22;8531;48.078;11.968;2023-03-23T05:34:19;9.40;99.90
16829;DHT22;8531;48.078;11.968;2023-03-23T05:36:45;9.40;99.90
16829;DHT22;8531;48.078;11.968;2023-03-23T05:39:11;9.40;99.90
16829;DHT22;8531;48.078;11.968;2023-03-23T05:41:38;9.40;99.90
16829;DHT22;8531;48.078;11.968;2023-03-23T05:44:04;9.40;99.90
16829;DHT22;8531;48.078;11.968;2023-03-23T05:46:30;9.50;99.90
16829;DHT22;8531;48.078;11.968;2023-03-23T05:48:56;9.50;99.90
16829;DHT22;8531;48.078;11.968;2023-03-23T05:51:21;9.50;99.90
16829;DHT22;8531;48.078;11.968;2023-03-23T05:53:47;9.50;99.90
16829;DHT22;8531;48.078;11.968;2023-03-23T05:56:13;9.60;99.90
16829;DHT22;8531;48.078;11.968;2023-03-23T05:58:40;9.60;99.90
16829;DHT22;8531;48.078;11.968;2023-03-23T06:01:07;9.60;99.90
16829;DHT22;8531;48.078;11.968;2023-03-23T06:03:32;9.70;99.90
16829;DHT22;8531;48.078;11.968;2023-03-23T06:05:58;9.80;99.90
16829;DHT22;8531;48.078;11.968;2023-03-23T06:08:24;9.90;99.90
16829;DHT22;8531;48.078;11.968;2023-03-23T06:10:50;10.00;99.90
16829;DHT22;8531;48.078;11.968;2023-03-23T06:13:16;10.00;99.90
16829;DHT22;8531;48.078;11.968;2023-03-23T06:15:41;10.10;99.90
16829;DHT22;8531;48.078;11.968;2023-03-23T06:18:07;10.20;99.90
16829;DHT22;8531;48.078;11.968;2023-03-23T06:20:33;10.30;99.90
16829;DHT22;8531;48.078;11.968;2023-03-23T06:23:00;10.30;99.90
16829;DHT22;8531;48.078;11.968;2023-03-23T06:25:28;10.40;99.90
16829;DHT22;8531;48.078;11.968;2023-03-23T06:27:54;10.40;99.90
16829;DHT22;8531;48.078;11.968;2023-03-23T06:30:20;10.40;99.90
16829;DHT22;8531;48.078;11.968;2023-03-23T06:32:46;10.20;99.90
16829;DHT22;8531;48.078;11.968;2023-03-23T06:35:13;10.10;99.90
16829;DHT22;8531;48.078;11.968;2023-03-23T06:37:39;10.10;99.90
16829;DHT22;8531;48.078;11.968;2023-03-23T06:40:06;10.00;99.90
16829;DHT22;8531;48.078;11.968;2023-03-23T06:42:32;10.00;99.90
16829;DHT22;8531;48.078;11.968;2023-03-23T06:44:59;10.10;99.90
16829;DHT22;8531;48.078;11.968;2023-03-23T06:47:26;10.20;99.90
16829;DHT22;8531;48.078;11.968;2023-03-23T06:49:55;10.30;99.90
16829;DHT22;8531;48.078;11.968;2023-03-23T06:52:21;10.40;99.90
16829;DHT22;8531;48.078;11.968;2023-03-23T06:54:48;10.50;99.90
16829;DHT22;8531;48.078;11.968;2023-03-23T06:57:14;10.60;99.90
16829;DHT22;8531;48.078;11.968;2023-03-23T06:59:40;10.70;99.90
16829;DHT22;8531;48.078;11.968;2023-03-23T07:02:11;10.80;99.90
16829;DHT22;8531;48.078;11.968;2023-03-23T07:04:38;10.80;99.90
16829;DHT22;8531;48.078;11.968;2023-03-23T07:07:04;10.80;99.90
16829;DHT22;8531;48.078;11.968;2023-03-23T07:09:30;10.70;99.90
16829;DHT22;8531;48.078;11.968;2023-03-23T07:11:56;10.80;99.90
16829;DHT22;8531;48.078;11.968;2023-03-23T07:14:22;10.80;99.90
16829;DHT22;8531;48.078;11.968;2023-03-23T07:16:48;10.80;99.90
16829;DHT22;8531;48.078;11.968;2023-03-23T07:19:14;10.80;99.90
16829;DHT22;8531;48.078;11.968;2023-03-23T07:21:40;10.80;99.90
16829;DHT22;8531;48.078;11.968;2023-03-23T07:24:09;10.80;99.90
16829;DHT22;8531;48.078;11.968;2023-03-23T07:26:36;10.70;99.90
16829;DHT22;8531;48.078;11.968;2023-03-23T07:29:02;10.70;99.90
16829;DHT22;8531;48.078;11.968;2023-03-23T07:31:28;10.70;99.90
16829;DHT22;8531;48.078;11.968;2023-03-23T07:33:54;10.80;99.90
16829;DHT22;8531;48.078;11.968;2023-03-23T07:36:19;10.80;99.90
16829;DHT22;8531;48.078;11.968;2023-03-23T07:38:45;10.80;99.90
16829;DHT22;8531;48.078;11.968;2023-03-23T07:41:11;10.80;99.90
16829;DHT22;8531;48.078;11.968;2023-03-23T07:43:37;10.90;99.90
16829;DHT22;8531;48.078;11.968;2023-03-23T07:46:02;10.90;99.90
16829;DHT22;8531;48.078;11.968;2023-03-23T07:48:28;10.90;99.90
16829;DHT22;8531;48.078;11.968;2023-03-23T07:50:54;11.00;99.90
16829;DHT22;8531;48.078;11.968;2023-03-23T07:53:19;10.90;99.90
16829;DHT22;8531;48.078;11.968;2023-03-23T07:55:47;11.00;99.90
16829;DHT22;8531;48.078;11.968;2023-03-23T07:58:14;11.10;99.90
16829;DHT22;8531;48.078;11.968;2023-03-23T08:00:47;11.10;99.90
16829;DHT22;8531;48.078;11.968;2023-03-23T08:03:14;11.20;99.90
16829;DHT22;8531;48.078;11.968;2023-03-23T08:05:41;11.30;99.90
16829;DHT22;8531;48.078;11.968;2023-03-23T08:08:09;11.40;99.90
16829;DHT22;8531;48.078;11.968;2023-03-23T08:10:35;11.40;99.90
16829;DHT22;8531;48.078;11.968;2023-03-23T08:13:01;11.50;99.90
16829;DHT22;8531;48.078;11.968;2023-03-23T08:15:27;11.60;99.90
16829;DHT22;8531;48.078;11.968;2023-03-23T08:17:54;11.80;99.90
16829;DHT22;8531;48.078;11.968;2023-03-23T08:20:21;11.90;99.90
16829;DHT22;8531;48.078;11.968;2023-03-23T08:22:54;11.90;99.90
16829;DHT22;8531;48.078;11.968;2023-03-23T08:25:21;12.10;99.90
16829;DHT22;8531;48.078;11.968;2023-03-23T08:27:47;12.10;99.90
16829;DHT22;8531;48.078;11.968;2023-03-23T08:30:18;12.30;99.90
16829;DHT22;8531;48.078;11.968;2023-03-23T08:32:52;12.80;99.90
16829;DHT22;8531;48.078;11.968;2023-03-23T08:35:19;12.80;99.90
16829;DHT22;8531;48.078;11.968;2023-03-23T08:37:45;12.90;99.90
16829;DHT22;8531;48.078;11.968;2023-03-23T08:40:13;13.00;99.90
16829;DHT22;8531;48.078;11.968;2023-03-23T08:42:43;13.10;99.90
16829;DHT22;8531;48.078;11.968;2023-03-23T08:45:10;13.20;99.90
16829;DHT22;8531;48.078;11.968;2023-03-23T08:47:37;13.40;99.90
16829;DHT22;8531;48.078;11.968;2023-03-23T08:50:05;13.50;99.90
16829;DHT22;8531;48.078;11.968;2023-03-23T08:52:31;13.70;99.90
16829;DHT22;8531;48.078;11.968;2023-03-23T08:54:57;13.70;99.90
16829;DHT22;8531;48.078;11.968;2023-03-23T08:57:25;13.60;99.90
16829;DHT22;8531;48.078;11.968;2023-03-23T08:59:51;13.60;99.90
16829;DHT22;8531;48.078;11.968;2023-03-23T09:02:20;13.60;99.90
16829;DHT22;8531;48.078;11.968;2023-03-23T09:04:45;13.60;99.90
16829;DHT22;8531;48.078;11.968;2023-03-23T09:07:12;13.70;99.90
16829;DHT22;8531;48.078;11.968;2023-03-23T09:09:40;14.00;99.90
16829;DHT22;8531;48.078;11.968;2023-03-23T09:12:08;14.00;99.90
16829;DHT22;8531;48.078;11.968;2023-03-23T09:14:35;14.00;99.90
16829;DHT22;8531;48.078;11.968;2023-03-23T09:17:02;14.00;99.90
16829;DHT22;8531;48.078;11.968;2023-03-23T09:19:29;14.00;99.90
16829;DHT22;8531;48.078;11.968;2023-03-23T09:21:55;13.90;99.90
16829;DHT22;8531;48.078;11.968;2023-03-23T09:24:20;13.90;99.90
16829;DHT22;8531;48.078;11.968;2023-03-23T09:26:47;14.00;99.90
16829;DHT22;8531;48.078;11.968;2023-03-23T09:29:13;14.10;99.90
16829;DHT22;8531;48.078;11.968;2023-03-23T09:31:39;14.20;99.90
16829;DHT22;8531;48.078;11.968;2023-03-23T09:34:07;14.20;99.90
16829;DHT22;8531;48.078;11.968;2023-03-23T09:36:36;14.10;99.90
16829;DHT22;8531;48.078;11.968;2023-03-23T09:39:01;14.20;99.90
16829;DHT22;8531;48.078;11.968;2023-03-23T09:47:10;14.30;99.90
16829;DHT22;8531;48.078;11.968;2023-03-23T09:49:45;14.40;99.90
16829;DHT22;8531;48.078;11.968;2023-03-23T09:52:14;14.30;99.90
16829;DHT22;8531;48.078;11.968;2023-03-23T09:54:43;14.50;99.90
16829;DHT22;8531;48.078;11.968;2023-03-23T09:57:19;14.60;99.90
16829;DHT22;8531;48.078;11.968;2023-03-23T09:59:52;14.80;99.90
16829;DHT22;8531;48.078;11.968;2023-03-23T10:02:52;15.00;99.90
16829;DHT22;8531;48.078;11.968;2023-03-23T10:05:34;15.10;99.90
16829;DHT22;8531;48.078;11.968;2023-03-23T10:08:05;15.20;99.90
16829;DHT22;8531;48.078;11.968;2023-03-23T10:11:02;15.30;99.90
16829;DHT22;8531;48.078;11.968;2023-03-23T10:16:07;15.50;99.90
16829;DHT22;8531;48.078;11.968;2023-03-23T10:21:17;15.90;99.90
16829;DHT22;8531;48.078;11.968;2023-03-23T10:24:04;16.20;99.90
16829;DHT22;8531;48.078;11.968;2023-03-23T10:26:48;16.40;99.90
16829;DHT22;8531;48.078;11.968;2023-03-23T10:29:38;16.60;99.90
16829;DHT22;8531;48.078;11.968;2023-03-23T10:32:20;16.80;99.90
16829;DHT22;8531;48.078;11.968;2023-03-23T10:34:48;16.80;99.90
16829;DHT22;8531;48.078;11.968;2023-03-23T10:37:31;16.80;99.90
16829;DHT22;8531;48.078;11.968;2023-03-23T10:40:00;16.80;99.90
16829;DHT22;8531;48.078;11.968;2023-03-23T10:42:31;16.70;99.90
16829;DHT22;8531;48.078;11.968;2023-03-23T10:45:00;16.60;99.90
16829;DHT22;8531;48.078;11.968;2023-03-23T10:47:26;16.70;99.90
16829;DHT22;8531;48.078;11.968;2023-03-23T10:50:02;16.90;99.90
16829;DHT22;8531;48.078;11.968;2023-03-23T10:52:36;17.00;99.90
16829;DHT22;8531;48.078;11.968;2023-03-23T10:55:10;17.10;99.90
16829;DHT22;8531;48.078;11.968;2023-03-23T10:57:38;17.20;99.90
16829;DHT22;8531;48.078;11.968;2023-03-23T11:02:45;17.40;99.90
16829;DHT22;8531;48.078;11.968;2023-03-23T11:05:20;17.60;99.90
16829;DHT22;8531;48.078;11.968;2023-03-23T11:07:53;17.60;99.90
16829;DHT22;8531;48.078;11.968;2023-03-23T11:10:34;17.50;99.90
16829;DHT22;8531;48.078;11.968;2023-03-23T11:13:01;17.70;99.90
16829;DHT22;8531;48.078;11.968;2023-03-23T11:15:39;17.60;99.90
16829;DHT22;8531;48.078;11.968;2023-03-23T11:18:26;17.70;99.90
16829;DHT22;8531;48.078;11.968;2023-03-23T11:20:58;17.60;99.90
16829;DHT22;8531;48.078;11.968;2023-03-23T11:23:33;17.60;99.90
16829;DHT22;8531;48.078;11.968;2023-03-23T11:26:24;17.60;99.90
16829;DHT22;8531;48.078;11.968;2023-03-23T11:29:20;17.60;99.90
16829;DHT22;8531;48.078;11.968;2023-03-23T11:32:10;17.70;99.90
16829;DHT22;8531;48.078;11.968;2023-03-23T11:34:46;17.60;99.90
16829;DHT22;8531;48.078;11.968;2023-03-23T11:37:35;17.70;99.90
16829;DHT22;8531;48.078;11.968;2023-03-23T11:48:11;17.80;99.90
16829;DHT22;8531;48.078;11.968;2023-03-23T11:50:51;18.10;99.90
16829;DHT22;8531;48.078;11.968;2023-03-23T11:58:53;18.60;99.90
16829;DHT22;8531;48.078;11.968;2023-03-23T12:01:32;18.60;99.90
16829;DHT22;8531;48.078;11.968;2023-03-23T12:12:15;19.20;99.90
16829;DHT22;8531;48.078;11.968;2023-03-23T12:21:04;19.40;99.90
16829;DHT22;8531;48.078;11.968;2023-03-23T12:34:22;19.40;99.90
16829;DHT22;8531;48.078;11.968;2023-03-23T12:48:17;19.30;99.90
16829;DHT22;8531;48.078;11.968;2023-03-23T12:54:01;19.20;99.90
16829;DHT22;8531;48.078;11.968;2023-03-23T12:56:50;19.10;99.90
16829;DHT22;8531;48.078;11.968;2023-03-23T13:02:34;19.10;99.90
16829;DHT22;8531;48.078;11.968;2023-03-23T13:05:08;19.00;99.90
16829;DHT22;8531;48.078;11.968;2023-03-23T13:07:44;19.10;99.90
16829;DHT22;8531;48.078;11.968;2023-03-23T13:10:23;19.10;99.90
16829;DHT22;8531;48.078;11.968;2023-03-23T13:12:51;19.20;99.90
16829;DHT22;8531;48.078;11.968;2023-03-23T13:15:51;19.20;99.90
16829;DHT22;8531;48.078;11.968;2023-03-23T13:18:46;19.30;99.90
16829;DHT22;8531;48.078;11.968;2023-03-23T13:23:59;19.20;99.90
16829;DHT22;8531;48.078;11.968;2023-03-23T13:26:26;19.10;99.90
16829;DHT22;8531;48.078;11.968;2023-03-23T13:31:27;19.10;99.90
16829;DHT22;8531;48.078;11.968;2023-03-23T13:37:02;19.10;99.90
16829;DHT22;8531;48.078;11.968;2023-03-23T13:39:37;19.10;99.90
16829;DHT22;8531;48.078;11.968;2023-03-23T13:47:37;19.10;99.90
16829;DHT22;8531;48.078;11.968;2023-03-23T13:50:43;19.10;99.90
16829;DHT22;8531;48.078;11.968;2023-03-23T13:53:12;19.20;99.90
16829;DHT22;8531;48.078;11.968;2023-03-23T13:55:50;19.10;99.90
16829;DHT22;8531;48.078;11.968;2023-03-23T13:58:26;19.00;99.90
16829;DHT22;8531;48.078;11.968;2023-03-23T14:01:11;18.90;99.90
16829;DHT22;8531;48.078;11.968;2023-03-23T14:03:42;18.90;99.90
16829;DHT22;8531;48.078;11.968;2023-03-23T14:06:18;18.90;99.90
16829;DHT22;8531;48.078;11.968;2023-03-23T14:08:48;18.80;99.90
16829;DHT22;8531;48.078;11.968;2023-03-23T14:11:16;18.70;99.90
16829;DHT22;8531;48.078;11.968;2023-03-23T14:16:23;18.70;99.90
16829;DHT22;8531;48.078;11.968;2023-03-23T14:18:57;18.80;99.90
16829;DHT22;8531;48.078;11.968;2023-03-23T14:21:41;18.80;99.90
16829;DHT22;8531;48.078;11.968;2023-03-23T14:24:13;19.00;99.90
16829;DHT22;8531;48.078;11.968;2023-03-23T14:26:40;19.00;99.90
16829;DHT22;8531;48.078;11.968;2023-03-23T14:29:10;18.90;99.90
16829;DHT22;8531;48.078;11.968;2023-03-23T14:31:36;18.90;99.90
16829;DHT22;8531;48.078;11.968;2023-03-23T14:34:24;18.90;99.90
16829;DHT22;8531;48.078;11.968;2023-03-23T14:36:50;19.00;99.90
16829;DHT22;8531;48.078;11.968;2023-03-23T14:39:22;18.90;99.90
16829;DHT22;8531;48.078;11.968;2023-03-23T14:41:49;18.90;99.90
16829;DHT22;8531;48.078;11.968;2023-03-23T14:44:31;18.80;99.90
16829;DHT22;8531;48.078;11.968;2023-03-23T14:47:05;18.80;99.90
16829;DHT22;8531;48.078;11.968;2023-03-23T14:49:40;18.80;99.90
16829;DHT22;8531;48.078;11.968;2023-03-23T14:52:12;18.80;99.90
16829;DHT22;8531;48.078;11.968;2023-03-23T14:54:39;18.80;99.90
16829;DHT22;8531;48.078;11.968;2023-03-23T14:57:28;18.80;99.90
16829;DHT22;8531;48.078;11.968;2023-03-23T14:59:55;18.80;99.90
16829;DHT22;8531;48.078;11.968;2023-03-23T15:02:32;18.70;99.90
16829;DHT22;8531;48.078;11.968;2023-03-23T15:05:25;18.60;99.90
16829;DHT22;8531;48.078;11.968;2023-03-23T15:07:54;18.60;99.90
16829;DHT22;8531;48.078;11.968;2023-03-23T15:10:23;18.60;99.90
16829;DHT22;8531;48.078;11.968;2023-03-23T15:12:50;18.50;99.90
16829;DHT22;8531;48.078;11.968;2023-03-23T15:15:35;18.40;99.90
16829;DHT22;8531;48.078;11.968;2023-03-23T15:18:02;18.40;99.90
16829;DHT22;8531;48.078;11.968;2023-03-23T15:20:32;18.40;99.90
16829;DHT22;8531;48.078;11.968;2023-03-23T15:23:15;18.30;99.90
16829;DHT22;8531;48.078;11.968;2023-03-23T15:25:48;18.30;99.90
16829;DHT22;8531;48.078;11.968;2023-03-23T15:28:28;18.20;99.90
16829;DHT22;8531;48.078;11.968;2023-03-23T15:30:57;18.20;99.90
16829;DHT22;8531;48.078;11.968;2023-03-23T15:33:29;18.20;99.90
16829;DHT22;8531;48.078;11.968;2023-03-23T15:35:58;18.20;99.90
16829;DHT22;8531;48.078;11.968;2023-03-23T15:38:28;18.20;99.90
16829;DHT22;8531;48.078;11.968;2023-03-23T15:40:57;18.10;99.90
16829;DHT22;8531;48.078;11.968;2023-03-23T15:43:32;18.10;99.90
16829;DHT22;8531;48.078;11.968;2023-03-23T15:46:00;18.20;99.90
16829;DHT22;8531;48.078;11.968;2023-03-23T15:48:44;18.20;99.90
16829;DHT22;8531;48.078;11.968;2023-03-23T15:51:10;18.10;99.90
16829;DHT22;8531;48.078;11.968;2023-03-23T15:53:37;18.10;99.90
16829;DHT22;8531;48.078;11.968;2023-03-23T15:56:08;18.00;99.90
16829;DHT22;8531;48.078;11.968;2023-03-23T15:58:35;17.90;99.90
16829;DHT22;8531;48.078;11.968;2023-03-23T16:01:05;17.80;99.90
16829;DHT22;8531;48.078;11.968;2023-03-23T16:06:18;17.80;99.90
16829;DHT22;8531;48.078;11.968;2023-03-23T16:08:44;17.70;99.90
16829;DHT22;8531;48.078;11.968;2023-03-23T16:11:15;17.70;99.90
16829;DHT22;8531;48.078;11.968;2023-03-23T16:13:41;17.70;99.90
16829;DHT22;8531;48.078;11.968;2023-03-23T16:16:22;17.70;99.90
16829;DHT22;8531;48.078;11.968;2023-03-23T16:18:49;17.60;99.90
16829;DHT22;8531;48.078;11.968;2023-03-23T16:21:14;17.60;99.90
16829;DHT22;8531;48.078;11.968;2023-03-23T16:23:41;17.60;99.90
16829;DHT22;8531;48.078;11.968;2023-03-23T16:26:09;17.60;99.90
16829;DHT22;8531;48.078;11.968;2023-03-23T16:28:34;17.60;99.90
16829;DHT22;8531;48.078;11.968;2023-03-23T16:31:00;17.60;99.90
16829;DHT22;8531;48.078;11.968;2023-03-23T16:33:26;17.50;99.90
16829;DHT22;8531;48.078;11.968;2023-03-23T16:35:52;17.50;99.90
16829;DHT22;8531;48.078;11.968;2023-03-23T16:38:17;17.50;99.90
16829;DHT22;8531;48.078;11.968;2023-03-23T16:40:45;17.40;99.90
16829;DHT22;8531;48.078;11.968;2023-03-23T16:43:11;17.30;99.90
16829;DHT22;8531;48.078;11.968;2023-03-23T16:45:39;17.20;99.90
16829;DHT22;8531;48.078;11.968;2023-03-23T16:48:06;17.20;99.90
16829;DHT22;8531;48.078;11.968;2023-03-23T16:50:32;17.20;99.90
16829;DHT22;8531;48.078;11.968;2023-03-23T16:52:58;17.10;99.90
16829;DHT22;8531;48.078;11.968;2023-03-23T16:55:24;17.10;99.90
16829;DHT22;8531;48.078;11.968;2023-03-23T16:57:52;17.10;99.90
16829;DHT22;8531;48.078;11.968;2023-03-23T17:00:19;17.10;99.90
16829;DHT22;8531;48.078;11.968;2023-03-23T17:02:48;17.10;99.90
16829;DHT22;8531;48.078;11.968;2023-03-23T17:05:19;17.10;99.90
16829;DHT22;8531;48.078;11.968;2023-03-23T17:07:45;17.00;99.90
16829;DHT22;8531;48.078;11.968;2023-03-23T17:10:13;16.90;99.90
16829;DHT22;8531;48.078;11.968;2023-03-23T17:12:39;16.80;99.90
16829;DHT22;8531;48.078;11.968;2023-03-23T17:15:06;16.70;99.90
16829;DHT22;8531;48.078;11.968;2023-03-23T17:17:33;16.70;99.90
16829;DHT22;8531;48.078;11.968;2023-03-23T17:19:59;16.60;99.90
16829;DHT22;8531;48.078;11.968;2023-03-23T17:22:25;16.50;99.90
16829;DHT22;8531;48.078;11.968;2023-03-23T17:24:51;16.40;99.90
16829;DHT22;8531;48.078;11.968;2023-03-23T17:27:19;16.30;99.90
16829;DHT22;8531;48.078;11.968;2023-03-23T17:29:45;16.30;99.90
16829;DHT22;8531;48.078;11.968;2023-03-23T17:32:11;16.30;99.90
16829;DHT22;8531;48.078;11.968;2023-03-23T17:34:37;16.20;99.90
16829;DHT22;8531;48.078;11.968;2023-03-23T17:37:03;16.20;99.90
16829;DHT22;8531;48.078;11.968;2023-03-23T17:39:30;16.20;99.90
16829;DHT22;8531;48.078;11.968;2023-03-23T17:41:57;16.20;99.90